createdAt,value
2018-09-15T00:00:41.815Z,100.00
2018-09-15T00:03:11.021Z,100.00
2018-09-15T00:05:40.129Z,100.00
2018-09-15T00:08:09.424Z,100.00
2018-09-15T00:10:38.509Z,100.00
2018-09-15T00:13:07.775Z,100.00
2018-09-15T00:15:36.917Z,99.33
2018-09-15T00:18:10.139Z,99.34
2018-09-15T00:20:39.397Z,99.90
2018-09-15T00:23:09.361Z,100.00
2018-09-15T00:25:38.833Z,100.00
2018-09-15T00:28:08.040Z,100.00
2018-09-15T00:30:37.331Z,99.96
2018-09-15T00:33:06.559Z,100.00
2018-09-15T00:35:35.849Z,100.00
2018-09-15T00:38:05.529Z,100.00
2018-09-15T00:40:34.745Z,100.00
2018-09-15T00:43:04.504Z,100.00
2018-09-15T00:45:34.057Z,100.00
2018-09-15T00:48:03.651Z,100.00
2018-09-15T00:50:32.860Z,100.00
2018-09-15T00:53:02.970Z,100.00
2018-09-15T00:55:32.162Z,100.00
2018-09-15T00:58:01.203Z,100.00
2018-09-15T01:00:31.402Z,100.00
2018-09-15T01:03:01.012Z,100.00
2018-09-15T01:05:30.886Z,100.00
2018-09-15T01:08:13.674Z,100.00
2018-09-15T01:10:42.834Z,100.00
2018-09-15T01:13:12.006Z,100.00
2018-09-15T01:15:41.281Z,100.00
2018-09-15T01:18:10.753Z,100.00
2018-09-15T01:20:40.097Z,100.00
2018-09-15T01:23:09.208Z,100.00
2018-09-15T01:25:38.397Z,100.00
2018-09-15T01:28:07.604Z,100.00
2018-09-15T01:30:36.810Z,100.00
2018-09-15T01:33:06.670Z,100.00
2018-09-15T01:35:35.951Z,100.00
2018-09-15T01:38:05.714Z,100.00
2018-09-15T01:40:35.025Z,100.00
2018-09-15T01:43:04.797Z,100.00
2018-09-15T01:45:35.219Z,100.00
2018-09-15T01:48:05.162Z,100.00
2018-09-15T01:50:34.335Z,100.00
2018-09-15T01:53:04.502Z,100.00
2018-09-15T01:55:33.589Z,100.00
2018-09-15T01:58:03.193Z,100.00
2018-09-15T02:00:32.270Z,100.00
2018-09-15T02:03:01.379Z,100.00
2018-09-15T02:05:30.586Z,100.00
2018-09-15T02:07:59.677Z,100.00
2018-09-15T02:10:30.631Z,100.00
2018-09-15T02:12:59.942Z,100.00
2018-09-15T02:15:29.147Z,100.00
2018-09-15T02:17:58.390Z,100.00
2018-09-15T02:20:29.585Z,100.00
2018-09-15T02:22:59.595Z,100.00
2018-09-15T02:25:29.166Z,100.00
2018-09-15T02:27:58.502Z,100.00
2018-09-15T02:30:30.209Z,100.00
2018-09-15T02:32:59.558Z,100.00
2018-09-15T02:35:29.762Z,100.00
2018-09-15T02:37:58.943Z,100.00
2018-09-15T02:40:31.253Z,100.00
2018-09-15T02:43:00.915Z,100.00
2018-09-15T02:45:30.271Z,100.00
2018-09-15T02:48:00.760Z,100.00
2018-09-15T02:50:36.238Z,100.00
2018-09-15T02:53:06.106Z,100.00
2018-09-15T02:55:35.215Z,100.00
2018-09-15T02:58:04.593Z,100.00
2018-09-15T03:00:33.967Z,100.00
2018-09-15T03:03:03.626Z,100.00
2018-09-15T03:05:32.784Z,100.00
2018-09-15T03:08:01.959Z,100.00
2018-09-15T03:10:31.112Z,100.00
2018-09-15T03:13:00.352Z,100.00
2018-09-15T03:15:29.513Z,100.00
2018-09-15T03:17:58.749Z,100.00
2018-09-15T03:20:29.841Z,100.00
2018-09-15T03:22:58.903Z,100.00
2018-09-15T03:25:29.356Z,100.00
2018-09-15T03:27:58.647Z,100.00
2018-09-15T03:30:29.853Z,100.00
2018-09-15T03:32:59.037Z,100.00
2018-09-15T03:35:29.666Z,100.00
2018-09-15T03:37:58.767Z,100.00
2018-09-15T03:40:30.178Z,100.00
2018-09-15T03:43:06.914Z,100.00
2018-09-15T03:45:35.968Z,100.00
2018-09-15T03:48:05.490Z,100.00
2018-09-15T03:50:34.780Z,100.00
2018-09-15T03:53:04.205Z,100.00
2018-09-15T03:55:34.078Z,100.00
2018-09-15T03:58:03.745Z,100.00
2018-09-15T04:00:32.926Z,100.00
2018-09-15T04:03:02.454Z,100.00
2018-09-15T04:05:31.805Z,100.00
2018-09-15T04:08:01.284Z,100.00
2018-09-15T04:10:30.438Z,100.00
2018-09-15T04:12:59.649Z,100.00
2018-09-15T04:15:29.207Z,100.00
2018-09-15T04:20:51.356Z,100.00
2018-09-15T04:23:20.683Z,100.00
2018-09-15T04:25:49.757Z,100.00
2018-09-15T04:28:18.833Z,100.00
2018-09-15T04:30:47.812Z,100.00
2018-09-15T04:33:17.019Z,100.00
2018-09-15T04:35:46.226Z,100.00
2018-09-15T04:38:15.371Z,100.00
2018-09-15T04:40:44.719Z,100.00
2018-09-15T04:43:13.967Z,100.00
2018-09-15T04:45:43.137Z,100.00
2018-09-15T04:48:12.792Z,100.00
2018-09-15T04:50:42.046Z,100.00
2018-09-15T04:53:11.181Z,100.00
2018-09-15T04:55:40.295Z,100.00
2018-09-15T04:58:09.488Z,100.00
2018-09-15T05:00:38.709Z,100.00
2018-09-15T05:03:07.981Z,100.00
2018-09-15T05:05:37.081Z,100.00
2018-09-15T05:08:06.591Z,100.00
2018-09-15T05:10:35.706Z,100.00
2018-09-15T05:13:05.230Z,100.00
2018-09-15T05:15:34.217Z,100.00
2018-09-15T05:18:03.551Z,100.00
2018-09-15T05:20:32.643Z,100.00
2018-09-15T05:23:01.617Z,100.00
2018-09-15T05:25:30.845Z,100.00
2018-09-15T05:27:59.927Z,100.00
2018-09-15T05:30:31.570Z,100.00
2018-09-15T05:33:00.713Z,100.00
2018-09-15T05:35:29.698Z,100.00
2018-09-15T05:37:58.686Z,100.00
2018-09-15T05:40:30.994Z,100.00
2018-09-15T05:43:00.139Z,100.00
2018-09-15T05:45:29.835Z,98.16
2018-09-15T05:47:58.965Z,95.39
2018-09-15T05:50:30.109Z,94.67
2018-09-15T05:52:59.401Z,93.77
2018-09-15T05:55:31.260Z,92.16
2018-09-15T05:58:00.313Z,91.00
2018-09-15T06:00:30.904Z,86.59
2018-09-15T06:02:59.928Z,83.11
2018-09-15T06:05:29.944Z,83.62
2018-09-15T06:07:58.998Z,81.36
2018-09-15T06:10:31.274Z,79.31
2018-09-15T06:13:00.304Z,79.57
2018-09-15T06:15:30.851Z,76.93
2018-09-15T06:17:59.909Z,76.26
2018-09-15T06:20:31.041Z,73.32
2018-09-15T06:23:00.153Z,73.89
2018-09-15T06:25:30.669Z,73.04
2018-09-15T06:27:59.700Z,73.05
2018-09-15T06:30:30.915Z,73.70
2018-09-15T06:33:00.010Z,71.64
2018-09-15T06:35:31.046Z,70.47
2018-09-15T06:38:00.245Z,69.03
2018-09-15T06:40:30.785Z,68.27
2018-09-15T06:42:59.971Z,68.45
2018-09-15T06:45:32.367Z,67.42
2018-09-15T06:48:01.784Z,68.41
2018-09-15T06:50:31.524Z,69.56
2018-09-15T06:53:00.572Z,71.38
2018-09-15T06:55:32.521Z,72.04
2018-09-15T06:58:01.521Z,72.29
2018-09-15T07:00:34.366Z,71.95
2018-09-15T07:03:04.711Z,72.38
2018-09-15T07:05:36.434Z,72.64
2018-09-15T07:08:07.527Z,70.81
2018-09-15T07:10:38.321Z,68.70
2018-09-15T07:13:07.679Z,67.13
2018-09-15T07:15:36.846Z,65.83
2018-09-15T07:18:06.591Z,65.11
2018-09-15T07:20:37.562Z,67.03
2018-09-15T07:23:08.147Z,64.30
2018-09-15T07:25:37.329Z,64.75
2018-09-15T07:28:07.800Z,65.78
2018-09-15T07:30:36.873Z,64.57
2018-09-15T07:33:06.428Z,63.10
2018-09-15T07:35:35.577Z,64.61
2018-09-15T07:38:05.014Z,63.54
2018-09-15T07:40:34.027Z,64.01
2018-09-15T07:43:04.145Z,62.93
2018-09-15T07:45:33.465Z,61.59
2018-09-15T07:48:02.813Z,60.86
2018-09-15T07:50:32.010Z,61.48
2018-09-15T07:53:01.500Z,60.17
2018-09-15T07:55:33.609Z,59.53
2018-09-15T07:58:04.005Z,62.13
2018-09-15T08:00:33.283Z,58.61
2018-09-15T08:12:11.256Z,55.61
2018-09-15T08:14:40.472Z,56.93
2018-09-15T08:17:09.601Z,55.00
2018-09-15T08:19:38.775Z,58.04
2018-09-15T08:22:08.309Z,55.55
2018-09-15T08:24:37.546Z,57.61
2018-09-15T08:27:07.476Z,56.61
2018-09-15T08:29:36.625Z,56.70
2018-09-15T08:32:06.497Z,55.19
2018-09-15T08:34:35.604Z,55.56
2018-09-15T08:37:05.042Z,56.50
2018-09-15T08:39:34.251Z,55.46
2018-09-15T08:42:03.457Z,53.61
2018-09-15T08:44:32.770Z,52.45
2018-09-15T08:47:01.941Z,49.42
2018-09-15T08:49:30.973Z,49.19
2018-09-15T08:52:00.013Z,48.53
2018-09-15T08:54:29.038Z,47.61
2018-09-15T08:56:58.103Z,48.05
2018-09-15T08:59:27.555Z,51.75
2018-09-15T09:01:56.549Z,50.92
2018-09-15T09:04:25.694Z,46.43
2018-09-15T09:06:54.801Z,46.55
2018-09-15T09:09:23.797Z,47.81
2018-09-15T09:11:52.836Z,48.80
2018-09-15T09:14:21.985Z,47.72
2018-09-15T09:16:50.973Z,49.82
2018-09-15T09:27:55.522Z,44.51
2018-09-15T09:30:24.549Z,46.03
2018-09-15T09:32:53.697Z,42.95
2018-09-15T09:35:22.878Z,42.30
2018-09-15T09:37:52.041Z,42.71
2018-09-15T09:40:22.130Z,43.86
2018-09-15T09:42:51.375Z,41.06
2018-09-15T09:45:21.937Z,41.33
2018-09-15T09:47:50.980Z,39.91
2018-09-15T09:50:22.294Z,37.02
2018-09-15T09:52:51.317Z,36.50
2018-09-15T09:55:21.169Z,38.39
2018-09-15T09:57:50.351Z,38.10
2018-09-15T10:00:27.002Z,36.03
2018-09-15T10:02:56.047Z,35.22
2018-09-15T10:05:25.349Z,36.28
2018-09-15T10:07:54.390Z,33.53
2018-09-15T10:10:23.531Z,34.11
2018-09-15T10:12:52.625Z,33.24
2018-09-15T10:15:22.015Z,35.73
2018-09-15T10:17:51.046Z,35.92
2018-09-15T10:20:22.672Z,35.49
2018-09-15T10:22:51.778Z,35.17
2018-09-15T10:25:21.380Z,36.53
2018-09-15T10:27:50.493Z,34.92
2018-09-15T10:30:22.110Z,36.10
2018-09-15T10:32:51.147Z,36.91
2018-09-15T10:35:22.180Z,33.26
2018-09-15T10:37:51.265Z,34.49
2018-09-15T10:40:22.781Z,34.35
2018-09-15T10:42:51.912Z,34.85
2018-09-15T10:45:21.223Z,32.99
2018-09-15T10:47:50.511Z,31.22
2018-09-15T10:50:22.926Z,32.03
2018-09-15T10:52:52.069Z,32.02
2018-09-15T10:55:21.194Z,31.18
2018-09-15T10:57:50.343Z,32.82
2018-09-15T11:00:23.574Z,31.89
2018-09-15T11:02:52.606Z,31.49
2018-09-15T11:05:23.083Z,31.45
2018-09-15T11:07:52.209Z,32.89
2018-09-15T11:10:22.320Z,32.98
2018-09-15T11:12:51.389Z,31.32
2018-09-15T11:15:22.100Z,29.56
2018-09-15T11:17:51.457Z,29.02
2018-09-15T11:20:22.600Z,29.32
2018-09-15T11:22:51.819Z,30.05
2018-09-15T11:25:21.588Z,28.18
2018-09-15T11:27:50.754Z,28.21
2018-09-15T11:30:22.405Z,29.22
2018-09-15T11:32:51.652Z,29.85
2018-09-15T11:35:22.603Z,29.60
2018-09-15T11:37:51.686Z,31.36
2018-09-15T11:40:22.141Z,35.37
2018-09-15T11:42:51.414Z,36.50
2018-09-15T11:45:22.449Z,35.44
2018-09-15T11:47:51.714Z,34.46
2018-09-15T11:50:22.670Z,32.74
2018-09-15T11:52:52.087Z,33.43
2018-09-15T11:55:22.050Z,32.09
2018-09-15T11:57:51.160Z,32.31
2018-09-15T12:00:25.185Z,29.28
2018-09-15T12:02:54.442Z,30.62
2018-09-15T12:05:24.666Z,29.11
2018-09-15T12:07:53.783Z,31.14
2018-09-15T12:10:22.852Z,31.84
2018-09-15T12:12:51.966Z,29.73
2018-09-15T12:15:22.006Z,32.55
2018-09-15T12:17:51.465Z,33.66
2018-09-15T12:20:22.850Z,31.47
2018-09-15T12:22:52.103Z,32.85
2018-09-15T12:25:21.459Z,31.54
2018-09-15T12:27:50.889Z,29.06
2018-09-15T12:30:22.665Z,28.95
2018-09-15T12:32:51.786Z,29.11
2018-09-15T12:35:21.645Z,29.80
2018-09-15T12:37:50.879Z,30.41
2018-09-15T12:40:22.409Z,31.37
2018-09-15T12:42:51.624Z,31.96
2018-09-15T12:45:22.548Z,33.10
2018-09-15T12:47:51.599Z,32.00
2018-09-15T12:50:23.103Z,32.06
2018-09-15T12:52:52.228Z,30.76
2018-09-15T12:55:21.388Z,30.43
2018-09-15T12:57:50.822Z,27.91
2018-09-15T13:00:22.269Z,30.10
2018-09-15T13:02:51.423Z,29.75
2018-09-15T13:05:21.483Z,29.11
2018-09-15T13:07:50.525Z,31.07
2018-09-15T13:10:21.785Z,32.46
2018-09-15T13:12:50.728Z,32.34
2018-09-15T13:15:22.546Z,31.50
2018-09-15T13:17:51.652Z,29.96
2018-09-15T13:28:58.505Z,29.17
2018-09-15T13:31:27.605Z,30.44
2018-09-15T13:33:57.007Z,32.24
2018-09-15T13:36:26.166Z,31.59
2018-09-15T13:38:55.220Z,28.83
2018-09-15T13:41:25.237Z,28.02
2018-09-15T13:43:54.373Z,30.24
2018-09-15T13:46:23.582Z,28.80
2018-09-15T13:48:52.898Z,29.61
2018-09-15T13:51:22.007Z,28.46
2018-09-15T13:53:51.212Z,28.60
2018-09-15T13:56:20.372Z,29.39
2018-09-15T13:58:49.530Z,29.48
2018-09-15T14:01:18.638Z,29.70
2018-09-15T14:03:47.660Z,31.59
2018-09-15T14:06:16.935Z,33.47
2018-09-15T14:08:46.023Z,30.80
2018-09-15T14:11:15.069Z,30.02
2018-09-15T14:13:44.072Z,30.03
2018-09-15T14:16:13.193Z,29.55
2018-09-15T14:18:42.821Z,30.74
2018-09-15T14:21:12.173Z,30.42
2018-09-15T14:23:41.284Z,32.19
2018-09-15T14:26:10.330Z,33.47
2018-09-15T14:28:40.514Z,34.21
2018-09-15T14:31:09.716Z,35.20
2018-09-15T14:33:38.700Z,35.56
2018-09-15T14:36:07.883Z,36.40
2018-09-15T14:38:37.100Z,35.92
2018-09-15T14:41:06.198Z,37.31
2018-09-15T14:43:35.262Z,37.32
2018-09-15T14:46:04.333Z,37.18
2018-09-15T14:48:33.605Z,36.69
2018-09-15T14:51:02.735Z,37.87
2018-09-15T14:53:31.849Z,37.71
2018-09-15T14:56:00.836Z,38.34
2018-09-15T14:58:29.939Z,37.82
2018-09-15T15:00:59.090Z,38.71
2018-09-15T15:03:28.231Z,37.93
2018-09-15T15:05:57.325Z,38.17
2018-09-15T15:08:26.450Z,38.91
2018-09-15T15:10:55.862Z,39.24
2018-09-15T15:13:24.912Z,39.05
2018-09-15T15:15:54.178Z,38.54
2018-09-15T15:18:23.338Z,38.23
2018-09-15T15:20:52.422Z,39.51
2018-09-15T15:23:21.600Z,38.41
2018-09-15T15:25:50.769Z,38.30
2018-09-15T15:28:21.457Z,39.06
2018-09-15T15:30:50.659Z,39.52
2018-09-15T15:33:20.830Z,40.04
2018-09-15T15:35:49.909Z,39.43
2018-09-15T15:38:18.975Z,39.42
2018-09-15T15:40:48.071Z,41.54
2018-09-15T15:43:17.060Z,42.69
2018-09-15T15:45:46.304Z,43.66
2018-09-15T15:48:15.360Z,43.43
2018-09-15T15:50:44.432Z,41.91
2018-09-15T15:53:13.562Z,42.40
2018-09-15T15:55:43.409Z,43.41
2018-09-15T15:58:13.066Z,43.63
2018-09-15T16:00:42.807Z,44.04
2018-09-15T16:03:13.447Z,44.10
2018-09-15T16:05:44.339Z,44.30
2018-09-15T16:08:14.045Z,44.30
2018-09-15T16:10:43.674Z,43.84
2018-09-15T16:13:12.794Z,44.52
2018-09-15T16:15:43.264Z,43.89
2018-09-15T16:18:12.672Z,43.49
2018-09-15T16:20:42.389Z,44.42
2018-09-15T16:23:13.114Z,43.74
2018-09-15T16:25:42.688Z,42.93
2018-09-15T16:37:31.286Z,51.29
2018-09-15T16:40:00.753Z,54.66
2018-09-15T16:42:31.233Z,57.35
2018-09-15T16:45:00.517Z,58.83
2018-09-15T16:47:30.492Z,59.64
2018-09-15T16:49:59.714Z,61.34
2018-09-15T16:52:31.586Z,61.24
2018-09-15T16:55:02.145Z,62.51
2018-09-15T16:57:31.366Z,64.36
2018-09-15T17:00:00.635Z,65.11
2018-09-15T17:02:31.512Z,65.00
2018-09-15T17:05:01.601Z,65.73
2018-09-15T17:07:30.734Z,66.49
2018-09-15T17:10:02.467Z,66.86
2018-09-15T17:12:31.645Z,68.41
2018-09-15T17:15:00.720Z,68.78
2018-09-15T17:17:30.393Z,68.39
2018-09-15T17:19:59.671Z,68.89
2018-09-15T17:22:28.821Z,69.85
2018-09-15T17:30:43.756Z,71.48
2018-09-15T17:33:12.832Z,72.20
2018-09-15T17:35:42.994Z,72.09
2018-09-15T17:38:12.158Z,72.45
2018-09-15T17:40:41.595Z,72.58
2018-09-15T17:43:10.817Z,73.18
2018-09-15T17:45:42.392Z,73.43
2018-09-15T17:48:12.423Z,74.35
2018-09-15T17:50:42.955Z,75.91
2018-09-15T17:53:13.520Z,75.95
2018-09-15T17:55:46.377Z,76.23
2018-09-15T17:58:15.345Z,74.53
2018-09-15T18:00:44.512Z,72.92
2018-09-15T18:03:13.594Z,71.85
2018-09-15T18:05:43.122Z,72.51
2018-09-15T18:08:12.202Z,73.46
2018-09-15T18:10:41.796Z,73.76
2018-09-15T18:13:10.837Z,72.92
2018-09-15T18:15:39.938Z,72.55
2018-09-15T18:18:09.120Z,72.39
2018-09-15T18:20:38.188Z,72.60
2018-09-15T18:23:08.503Z,72.16
2018-09-15T18:35:04.565Z,73.41
2018-09-15T18:37:33.917Z,73.09
2018-09-15T18:40:03.051Z,72.71
2018-09-15T18:42:40.711Z,72.99
2018-09-15T18:45:33.310Z,73.82
2018-09-15T18:48:02.385Z,74.20
2018-09-15T18:50:31.692Z,74.04
2018-09-15T18:53:02.843Z,73.51
2018-09-15T18:55:32.016Z,74.09
2018-09-15T18:58:01.139Z,74.93
2018-09-15T19:00:30.255Z,76.57
2018-09-15T19:02:59.307Z,79.18
2018-09-15T19:05:28.485Z,79.79
2018-09-15T19:07:57.595Z,79.00
2018-09-15T19:10:26.689Z,77.46
2018-09-15T19:12:55.839Z,77.33
2018-09-15T19:15:24.886Z,77.31
2018-09-15T19:17:53.975Z,77.50
2018-09-15T19:20:23.096Z,78.83
2018-09-15T19:22:52.195Z,78.69
2018-09-15T19:25:22.123Z,80.89
2018-09-15T19:27:51.395Z,82.98
2018-09-15T19:30:21.278Z,81.20
2018-09-15T19:32:50.585Z,79.81
2018-09-15T19:35:20.373Z,79.35
2018-09-15T19:37:49.627Z,80.74
2018-09-15T19:40:20.200Z,81.92
2018-09-15T19:42:49.389Z,83.71
2018-09-15T19:45:19.428Z,83.49
2018-09-15T19:47:48.564Z,84.75
2018-09-15T19:50:20.477Z,86.19
2018-09-15T19:52:49.800Z,87.51
2018-09-15T19:55:20.148Z,88.67
2018-09-15T19:57:49.886Z,88.24
2018-09-15T20:00:19.392Z,88.82
2018-09-15T20:02:50.109Z,90.14
2018-09-15T20:05:20.461Z,90.59
2018-09-15T20:07:49.532Z,91.66
2018-09-15T20:10:21.578Z,93.23
2018-09-15T20:12:50.823Z,93.28
2018-09-15T20:15:30.083Z,92.77
2018-09-15T20:17:58.456Z,91.60
2018-09-15T20:20:26.047Z,91.94
2018-09-15T20:22:56.086Z,90.53
2018-09-15T20:25:25.294Z,90.81
2018-09-15T20:27:54.619Z,91.50
2018-09-15T20:30:23.951Z,91.84
2018-09-15T20:32:53.281Z,93.03
2018-09-15T20:35:22.406Z,92.73
2018-09-15T20:37:51.489Z,93.82
2018-09-15T20:40:21.329Z,93.78
2018-09-15T20:42:50.683Z,95.14
2018-09-15T20:45:20.075Z,93.01
2018-09-15T20:47:49.228Z,95.72
2018-09-15T20:50:19.646Z,95.20
2018-09-15T20:52:48.809Z,94.64
2018-09-15T20:55:18.619Z,94.16
2018-09-15T20:57:47.752Z,93.07
2018-09-15T21:00:20.532Z,93.77
2018-09-15T21:02:49.603Z,93.75
2018-09-15T21:05:19.035Z,93.13
2018-09-15T21:07:48.137Z,93.37
2018-09-15T21:10:19.688Z,92.84
2018-09-15T21:12:49.903Z,93.24
2018-09-15T21:15:19.922Z,92.62
2018-09-15T21:17:49.126Z,92.65
2018-09-15T21:20:19.498Z,92.51
2018-09-15T21:22:48.706Z,92.33
2018-09-15T21:25:19.135Z,93.65
2018-09-15T21:27:48.292Z,93.81
2018-09-15T21:30:19.666Z,95.54
2018-09-15T21:32:48.945Z,95.14
2018-09-15T21:35:19.292Z,96.33
2018-09-15T21:37:48.437Z,96.79
2018-09-15T21:40:19.202Z,96.75
2018-09-15T21:42:48.400Z,96.72
2018-09-15T21:45:18.556Z,98.06
2018-09-15T21:47:47.792Z,99.10
2018-09-15T21:50:19.313Z,98.89
2018-09-15T21:52:48.610Z,97.63
2018-09-15T21:55:23.186Z,97.20
2018-09-15T21:57:52.416Z,97.25
2018-09-15T22:00:21.608Z,98.31
2018-09-15T22:02:50.787Z,98.63
2018-09-15T22:05:20.066Z,99.75
2018-09-15T22:07:49.146Z,100.00
2018-09-15T22:10:20.251Z,100.00
2018-09-15T22:12:49.293Z,100.00
2018-09-15T22:15:24.907Z,100.00
2018-09-15T22:17:55.500Z,100.00
2018-09-15T22:20:24.813Z,100.00
2018-09-15T22:22:54.093Z,100.00
2018-09-15T22:25:23.182Z,100.00
2018-09-15T22:27:52.861Z,100.00
2018-09-15T22:30:22.117Z,100.00
2018-09-15T22:32:51.221Z,100.00
2018-09-15T22:35:20.881Z,100.00
2018-09-15T22:37:50.546Z,100.00
2018-09-15T22:40:19.830Z,100.00
2018-09-15T22:42:49.108Z,100.00
2018-09-15T22:45:18.776Z,100.00
2018-09-15T22:47:47.907Z,100.00
2018-09-15T22:50:18.961Z,100.00
2018-09-15T22:52:48.500Z,100.00
2018-09-15T22:55:21.738Z,100.00
2018-09-15T22:57:51.009Z,100.00
2018-09-15T23:00:20.389Z,100.00
2018-09-15T23:02:50.214Z,100.00
2018-09-15T23:05:19.506Z,100.00
2018-09-15T23:07:48.700Z,100.00
2018-09-15T23:10:19.552Z,100.00
2018-09-15T23:12:48.751Z,100.00
2018-09-15T23:15:19.174Z,100.00
2018-09-15T23:17:48.379Z,100.00
2018-09-15T23:20:19.180Z,100.00
2018-09-15T23:22:48.285Z,100.00
2018-09-15T23:25:18.778Z,100.00
2018-09-15T23:27:47.953Z,100.00
2018-09-15T23:30:19.097Z,100.00
2018-09-15T23:32:58.565Z,100.00
2018-09-15T23:35:27.791Z,100.00
2018-09-15T23:37:57.116Z,100.00
2018-09-15T23:40:26.543Z,100.00
2018-09-15T23:42:55.883Z,100.00
2018-09-15T23:45:25.052Z,100.00
2018-09-15T23:47:54.329Z,100.00
2018-09-15T23:50:23.519Z,100.00
2018-09-15T23:52:52.785Z,100.00
2018-09-15T23:55:22.214Z,100.00
2018-09-15T23:57:51.442Z,100.00
